createdAt,value
2023-02-15T00:02:05.338Z,15.30
2023-02-15T00:04:48.066Z,14.43
2023-02-15T00:07:17.621Z,16.37
2023-02-15T00:09:47.410Z,17.13
2023-02-15T00:12:16.282Z,16.07
2023-02-15T00:14:44.391Z,13.60
2023-02-15T00:17:12.665Z,16.10
2023-02-15T00:19:42.132Z,17.03
2023-02-15T00:22:10.440Z,15.93
2023-02-15T00:24:38.325Z,16.27
2023-02-15T00:27:06.463Z,16.63
2023-02-15T00:29:34.494Z,14.60
2023-02-15T00:32:02.353Z,17.00
2023-02-15T00:34:30.769Z,13.60
2023-02-15T00:37:00.090Z,17.70
2023-02-15T00:39:28.377Z,13.27
2023-02-15T00:41:56.246Z,15.60
2023-02-15T00:44:24.144Z,15.33
2023-02-15T00:46:52.022Z,15.47
2023-02-15T00:49:19.878Z,17.13
2023-02-15T00:51:47.789Z,15.20
2023-02-15T00:54:17.039Z,15.23
2023-02-15T00:56:44.907Z,15.40
2023-02-15T00:59:12.809Z,16.40
2023-02-15T01:01:40.658Z,15.57
2023-02-15T01:04:08.776Z,14.67
2023-02-15T01:06:37.171Z,15.80
2023-02-15T01:09:05.224Z,17.07
2023-02-15T01:11:34.610Z,13.43
2023-02-15T01:14:04.186Z,15.50
2023-02-15T01:16:32.075Z,13.87
2023-02-15T01:18:59.965Z,13.17
2023-02-15T01:21:28.413Z,15.13
2023-02-15T01:23:56.275Z,14.63
2023-02-15T01:26:24.306Z,15.27
2023-02-15T01:28:53.522Z,14.00
2023-02-15T01:31:23.172Z,12.70
2023-02-15T01:33:51.755Z,14.60
2023-02-15T01:36:19.721Z,15.17
2023-02-15T01:38:47.643Z,13.17
2023-02-15T01:41:24.025Z,16.27
2023-02-15T01:43:56.046Z,14.93
2023-02-15T01:46:29.817Z,15.00
2023-02-15T01:49:04.248Z,15.40
2023-02-15T01:51:35.998Z,16.60
2023-02-15T01:54:11.937Z,17.00
2023-02-15T01:56:42.172Z,15.30
2023-02-15T01:59:17.873Z,14.93
2023-02-15T02:01:46.315Z,15.63
2023-02-15T02:04:19.546Z,15.63
2023-02-15T02:06:51.034Z,18.50
2023-02-15T02:09:18.972Z,13.30
2023-02-15T02:11:49.836Z,13.77
2023-02-15T02:14:20.004Z,12.37
2023-02-15T02:16:55.283Z,11.13
2023-02-15T02:19:54.765Z,14.33
2023-02-15T02:22:58.016Z,16.10
2023-02-15T02:26:10.289Z,14.00
2023-02-15T02:29:08.643Z,15.00
2023-02-15T02:32:07.576Z,15.13
2023-02-15T02:34:43.987Z,17.87
2023-02-15T02:37:22.009Z,14.87
2023-02-15T02:39:57.187Z,16.03
2023-02-15T02:42:31.467Z,13.53
2023-02-15T02:45:04.623Z,20.37
2023-02-15T02:47:38.677Z,18.33
2023-02-15T02:50:10.150Z,17.00
2023-02-15T02:52:43.504Z,17.90
2023-02-15T02:55:17.135Z,17.30
2023-02-15T02:57:54.421Z,14.73
2023-02-15T03:00:24.050Z,14.03
2023-02-15T03:02:56.797Z,14.63
2023-02-15T03:05:32.044Z,15.33
2023-02-15T03:08:02.150Z,19.07
2023-02-15T03:10:31.624Z,18.73
2023-02-15T03:12:59.685Z,18.37
2023-02-15T03:15:52.588Z,21.67
2023-02-15T03:18:25.202Z,16.87
2023-02-15T03:20:54.962Z,16.93
2023-02-15T03:23:26.913Z,18.47
2023-02-15T03:25:59.776Z,17.13
2023-02-15T03:28:33.095Z,18.57
2023-02-15T03:31:05.293Z,16.97
2023-02-15T03:33:34.694Z,17.90
2023-02-15T03:36:10.512Z,14.50
2023-02-15T03:38:45.278Z,15.30
2023-02-15T03:41:16.763Z,15.50
2023-02-15T03:43:50.878Z,17.97
2023-02-15T03:46:26.572Z,13.77
2023-02-15T03:48:56.801Z,13.43
2023-02-15T03:51:38.861Z,14.67
2023-02-15T03:54:10.588Z,16.47
2023-02-15T03:56:41.023Z,16.27
2023-02-15T03:59:26.657Z,16.07
2023-02-15T04:02:07.786Z,15.27
2023-02-15T04:04:38.003Z,15.47
2023-02-15T04:07:10.234Z,12.83
2023-02-15T04:09:56.161Z,14.20
2023-02-15T04:12:24.382Z,14.00
2023-02-15T04:15:09.829Z,16.37
2023-02-15T04:17:38.448Z,14.87
2023-02-15T04:20:25.010Z,14.57
2023-02-15T04:23:11.767Z,13.40
2023-02-15T04:25:39.660Z,15.00
2023-02-15T04:28:08.651Z,16.40
2023-02-15T04:30:36.698Z,15.00
2023-02-15T04:33:04.804Z,14.37
2023-02-15T04:35:34.466Z,15.10
2023-02-15T04:38:03.717Z,15.10
2023-02-15T04:40:31.825Z,15.03
2023-02-15T04:42:59.739Z,17.73
2023-02-15T04:45:28.236Z,16.43
2023-02-15T04:47:56.176Z,15.13
2023-02-15T04:50:24.429Z,16.30
2023-02-15T04:52:52.409Z,18.70
2023-02-15T04:55:21.678Z,15.83
2023-02-15T04:57:49.560Z,17.83
2023-02-15T05:00:17.935Z,13.63
2023-02-15T05:02:45.783Z,14.23
2023-02-15T05:05:17.219Z,15.90
2023-02-15T05:07:45.069Z,14.77
2023-02-15T05:10:13.011Z,15.07
2023-02-15T05:12:42.269Z,14.03
2023-02-15T05:15:11.209Z,13.53
2023-02-15T05:17:39.262Z,16.50
2023-02-15T05:20:10.711Z,16.50
2023-02-15T05:22:38.712Z,16.07
2023-02-15T05:25:24.379Z,20.00
2023-02-15T05:28:13.255Z,19.00
2023-02-15T05:30:41.938Z,21.03
2023-02-15T05:33:10.444Z,15.83
2023-02-15T05:35:38.376Z,19.40
2023-02-15T05:38:06.271Z,19.23
2023-02-15T05:40:34.190Z,30.43
2023-02-15T05:43:03.442Z,17.83
2023-02-15T05:45:31.323Z,22.80
2023-02-15T05:48:00.140Z,16.93
2023-02-15T05:50:28.758Z,18.37
2023-02-15T05:52:56.681Z,15.70
2023-02-15T05:55:24.601Z,17.40
2023-02-15T05:57:52.455Z,17.50
2023-02-15T06:00:22.212Z,15.57
2023-02-15T06:02:50.169Z,16.30
2023-02-15T06:05:18.441Z,20.27
2023-02-15T06:07:46.787Z,19.37
2023-02-15T06:10:14.711Z,21.43
2023-02-15T06:12:42.549Z,15.87
2023-02-15T06:15:11.218Z,17.60
2023-02-15T06:17:42.692Z,19.33
2023-02-15T06:20:11.349Z,16.43
2023-02-15T06:22:39.221Z,16.47
2023-02-15T06:25:11.097Z,18.17
2023-02-15T06:27:39.385Z,19.23
2023-02-15T06:30:08.589Z,25.47
2023-02-15T06:32:37.238Z,18.93
2023-02-15T06:35:07.581Z,20.87
2023-02-15T06:37:35.422Z,18.47
2023-02-15T06:40:03.983Z,19.90
2023-02-15T06:42:32.643Z,19.73
2023-02-15T06:45:01.302Z,22.33
2023-02-15T06:47:29.282Z,17.90
2023-02-15T06:49:57.174Z,20.67
2023-02-15T06:52:26.427Z,21.53
2023-02-15T06:54:54.317Z,25.57
2023-02-15T06:57:22.190Z,17.40
2023-02-15T06:59:50.148Z,18.73
2023-02-15T07:02:18.348Z,22.37
2023-02-15T07:04:46.241Z,25.50
2023-02-15T07:07:14.370Z,34.00
2023-02-15T07:09:43.632Z,21.47
2023-02-15T07:12:29.311Z,20.10
2023-02-15T07:14:59.166Z,25.63
2023-02-15T07:17:37.074Z,24.53
2023-02-15T07:20:07.169Z,23.57
2023-02-15T07:22:37.041Z,23.00
2023-02-15T07:25:07.547Z,18.57
2023-02-15T07:27:35.560Z,17.80
2023-02-15T07:30:04.507Z,21.70
2023-02-15T07:32:33.802Z,24.50
2023-02-15T07:35:02.138Z,19.93
2023-02-15T07:37:30.105Z,22.33
2023-02-15T07:39:57.987Z,17.60
2023-02-15T07:42:27.263Z,19.90
2023-02-15T07:44:55.083Z,17.77
2023-02-15T07:47:23.676Z,16.27
2023-02-15T07:49:51.558Z,23.13
2023-02-15T07:52:20.806Z,20.57
2023-02-15T07:54:48.678Z,23.90
2023-02-15T07:57:16.574Z,19.97
2023-02-15T07:59:45.801Z,21.70
2023-02-15T08:02:18.462Z,19.47
2023-02-15T08:04:46.413Z,20.60
2023-02-15T08:07:14.264Z,20.47
2023-02-15T08:09:42.135Z,25.30
2023-02-15T08:12:09.990Z,19.27
2023-02-15T08:14:37.966Z,19.87
2023-02-15T08:17:07.203Z,18.30
2023-02-15T08:19:35.754Z,18.27
2023-02-15T08:22:05.562Z,20.13
2023-02-15T08:24:35.423Z,20.03
2023-02-15T08:27:06.210Z,18.93
2023-02-15T08:29:36.228Z,19.13
2023-02-15T08:32:06.722Z,20.90
2023-02-15T08:34:38.449Z,23.43
2023-02-15T08:37:07.843Z,21.53
2023-02-15T08:39:35.974Z,20.63
2023-02-15T08:42:04.146Z,21.27
2023-02-15T08:44:32.127Z,21.20
2023-02-15T08:47:04.681Z,21.60
2023-02-15T08:49:33.129Z,17.90
2023-02-15T08:52:02.362Z,18.83
2023-02-15T08:54:30.313Z,17.70
2023-02-15T08:56:58.177Z,18.93
2023-02-15T08:59:27.943Z,16.27
2023-02-15T09:01:56.302Z,17.53
2023-02-15T09:04:24.384Z,20.13
2023-02-15T09:06:53.269Z,18.10
2023-02-15T09:09:23.328Z,17.10
2023-02-15T09:11:58.828Z,16.97
2023-02-15T09:14:28.465Z,14.00
2023-02-15T09:16:56.861Z,16.40
2023-02-15T09:19:25.888Z,16.93
2023-02-15T09:21:53.830Z,16.63
2023-02-15T09:24:23.415Z,15.37
2023-02-15T09:26:51.441Z,15.23
2023-02-15T09:29:21.022Z,15.93
2023-02-15T09:31:51.035Z,16.97
2023-02-15T09:34:20.868Z,18.10
2023-02-15T09:36:50.029Z,16.90
2023-02-15T09:39:19.824Z,17.97
2023-02-15T09:42:13.900Z,18.03
2023-02-15T09:44:59.989Z,16.20
2023-02-15T09:47:46.154Z,18.03
2023-02-15T09:50:22.840Z,16.13
2023-02-15T09:53:12.054Z,16.00
2023-02-15T09:55:50.435Z,18.00
2023-02-15T09:58:28.300Z,16.70
2023-02-15T10:01:03.220Z,19.67
2023-02-15T10:03:44.313Z,17.47
2023-02-15T10:06:32.118Z,21.37
2023-02-15T10:09:18.336Z,15.17
2023-02-15T10:12:01.214Z,16.17
2023-02-15T10:14:53.004Z,16.50
2023-02-15T10:17:38.719Z,18.50
2023-02-15T10:20:20.539Z,17.23
2023-02-15T10:23:07.864Z,17.00
2023-02-15T10:25:45.363Z,19.50
2023-02-15T10:28:19.640Z,18.80
2023-02-15T10:30:52.091Z,22.13
2023-02-15T10:33:40.323Z,19.10
2023-02-15T10:36:32.304Z,18.97
2023-02-15T10:39:08.651Z,19.87
2023-02-15T10:41:47.123Z,18.33
2023-02-15T10:44:38.983Z,20.37
2023-02-15T10:47:25.988Z,19.37
2023-02-15T10:50:11.373Z,19.27
2023-02-15T10:52:55.617Z,19.50
2023-02-15T10:55:33.082Z,18.80
2023-02-15T10:58:08.566Z,20.00
2023-02-15T11:00:43.902Z,19.37
2023-02-15T11:03:37.465Z,19.73
2023-02-15T11:06:11.300Z,20.23
2023-02-15T11:08:43.149Z,17.77
2023-02-15T11:11:14.947Z,20.13
2023-02-15T11:13:47.462Z,21.10
2023-02-15T11:16:18.997Z,20.37
2023-02-15T11:18:53.421Z,19.30
2023-02-15T11:21:24.940Z,19.13
2023-02-15T11:23:53.998Z,19.13
2023-02-15T11:26:29.050Z,19.20
2023-02-15T11:29:01.423Z,20.17
2023-02-15T11:31:39.475Z,19.57
2023-02-15T11:34:20.003Z,20.40
2023-02-15T11:36:51.123Z,19.13
2023-02-15T11:39:22.826Z,20.17
2023-02-15T11:41:55.108Z,20.17
2023-02-15T11:44:27.267Z,21.40
2023-02-15T11:46:55.275Z,19.77
2023-02-15T11:49:33.066Z,20.37
2023-02-15T11:52:04.617Z,20.43
2023-02-15T11:54:36.603Z,22.10
2023-02-15T11:57:19.326Z,19.13
2023-02-15T11:59:52.711Z,18.80
2023-02-15T12:02:24.074Z,19.80
2023-02-15T12:04:56.682Z,21.47
2023-02-15T12:07:28.427Z,20.63
2023-02-15T12:10:02.582Z,18.03
2023-02-15T12:12:31.928Z,21.07
2023-02-15T12:15:01.333Z,21.90
2023-02-15T12:17:31.847Z,22.33
2023-02-15T12:20:04.735Z,19.60
2023-02-15T12:22:34.597Z,20.13
2023-02-15T12:25:05.391Z,20.03
2023-02-15T12:27:36.231Z,21.23
2023-02-15T12:30:09.531Z,19.43
2023-02-15T12:32:49.375Z,20.70
2023-02-15T12:35:33.045Z,19.23
2023-02-15T12:38:05.398Z,21.87
2023-02-15T12:40:36.552Z,19.43
2023-02-15T12:43:09.672Z,21.67
2023-02-15T12:45:39.584Z,20.90
2023-02-15T12:48:21.741Z,19.97
2023-02-15T12:50:55.353Z,20.93
2023-02-15T12:53:24.912Z,17.70
2023-02-15T12:55:55.987Z,20.90
2023-02-15T12:58:26.446Z,20.33
2023-02-15T13:01:06.181Z,21.60
2023-02-15T13:04:16.705Z,17.90
2023-02-15T13:06:52.678Z,20.77
2023-02-15T13:09:22.970Z,20.57
2023-02-15T13:11:51.391Z,21.37
2023-02-15T13:14:23.757Z,19.73
2023-02-15T13:16:55.275Z,18.87
2023-02-15T13:19:31.711Z,20.23
2023-02-15T13:22:04.902Z,20.23
2023-02-15T13:24:38.602Z,19.53
2023-02-15T13:27:15.351Z,22.23
2023-02-15T13:29:47.202Z,19.67
2023-02-15T13:32:28.233Z,22.30
2023-02-15T13:34:59.093Z,21.40
2023-02-15T13:37:50.335Z,20.43
2023-02-15T13:40:24.516Z,22.50
2023-02-15T13:42:57.227Z,23.40
2023-02-15T13:45:37.847Z,22.60
2023-02-15T13:48:16.711Z,21.93
2023-02-15T13:50:57.302Z,21.90
2023-02-15T13:53:45.350Z,22.20
2023-02-15T13:56:21.814Z,23.07
2023-02-15T13:59:24.287Z,23.23
2023-02-15T14:01:58.907Z,24.67
2023-02-15T14:04:51.397Z,22.57
2023-02-15T14:07:35.705Z,18.70
2023-02-15T14:10:23.429Z,19.87
2023-02-15T14:13:06.506Z,22.60
2023-02-15T14:15:40.883Z,22.17
2023-02-15T14:18:22.297Z,21.97
2023-02-15T14:21:03.572Z,22.00
2023-02-15T14:23:46.751Z,23.40
2023-02-15T14:26:23.237Z,22.27
2023-02-15T14:28:59.787Z,22.13
2023-02-15T14:31:33.160Z,23.77
2023-02-15T14:34:01.081Z,25.63
2023-02-15T14:36:31.594Z,23.13
2023-02-15T14:39:35.831Z,24.57
2023-02-15T14:42:11.142Z,22.67
2023-02-15T14:44:44.552Z,22.70
2023-02-15T14:47:18.639Z,22.97
2023-02-15T14:49:46.563Z,23.30
2023-02-15T14:52:14.698Z,23.77
2023-02-15T14:54:58.164Z,22.03
2023-02-15T14:57:36.042Z,22.20
2023-02-15T15:00:35.687Z,22.00
2023-02-15T15:03:03.638Z,23.80
2023-02-15T15:05:36.156Z,23.37
2023-02-15T15:08:06.655Z,24.30
2023-02-15T15:10:44.497Z,26.67
2023-02-15T15:13:53.682Z,27.30
2023-02-15T15:16:51.881Z,23.93
2023-02-15T15:20:09.228Z,27.23
2023-02-15T15:22:38.425Z,26.13
2023-02-15T15:25:12.451Z,25.90
2023-02-15T15:27:54.363Z,25.53
2023-02-15T15:31:02.074Z,26.10
2023-02-15T15:34:03.671Z,27.20
2023-02-15T15:37:04.002Z,29.93
2023-02-15T15:39:59.952Z,25.37
2023-02-15T15:42:39.751Z,27.57
2023-02-15T15:45:33.895Z,28.37
2023-02-15T15:48:17.646Z,29.83
2023-02-15T15:50:46.200Z,28.33
2023-02-15T15:53:22.770Z,25.33
2023-02-15T15:55:55.154Z,23.47
2023-02-15T15:58:23.683Z,23.13
2023-02-15T16:00:53.879Z,24.17
2023-02-15T16:03:24.686Z,26.67
2023-02-15T16:05:56.192Z,25.43
2023-02-15T16:08:34.537Z,26.30
2023-02-15T16:11:12.331Z,24.77
2023-02-15T16:13:42.276Z,24.87
2023-02-15T16:16:10.358Z,25.73
2023-02-15T16:18:43.319Z,21.10
2023-02-15T16:21:19.615Z,24.70
2023-02-15T16:24:18.668Z,25.27
2023-02-15T16:27:07.851Z,23.37
2023-02-15T16:29:36.614Z,24.10
2023-02-15T16:32:08.069Z,26.10
2023-02-15T16:34:35.972Z,21.90
2023-02-15T16:37:18.181Z,25.77
2023-02-15T16:39:49.100Z,23.03
2023-02-15T16:42:18.009Z,25.80
2023-02-15T16:44:47.874Z,27.20
2023-02-15T16:47:20.479Z,24.97
2023-02-15T16:49:50.728Z,26.70
2023-02-15T16:52:23.618Z,26.47
2023-02-15T16:54:57.898Z,25.70
2023-02-15T16:57:29.922Z,26.87
2023-02-15T17:00:02.396Z,26.73
2023-02-15T17:02:54.482Z,27.70
2023-02-15T17:05:22.003Z,27.77
2023-02-15T17:08:06.656Z,30.07
2023-02-15T17:10:39.878Z,29.57
2023-02-15T17:13:12.851Z,27.57
2023-02-15T17:15:42.453Z,31.17
2023-02-15T17:18:16.799Z,26.87
2023-02-15T17:20:45.713Z,28.77
2023-02-15T17:23:27.811Z,25.03
2023-02-15T17:25:57.455Z,31.10
2023-02-15T17:28:28.610Z,26.13
2023-02-15T17:30:57.769Z,29.50
2023-02-15T17:33:30.142Z,28.80
2023-02-15T17:36:07.083Z,28.40
2023-02-15T17:38:35.296Z,30.07
2023-02-15T17:41:04.929Z,30.03
2023-02-15T17:43:33.441Z,27.73
2023-02-15T17:46:01.505Z,27.70
2023-02-15T17:48:34.410Z,27.90
2023-02-15T17:51:04.052Z,26.90
2023-02-15T17:53:32.602Z,29.60
2023-02-15T17:55:59.648Z,26.63
2023-02-15T17:58:28.939Z,28.60
2023-02-15T18:01:17.397Z,29.40
2023-02-15T18:04:05.857Z,28.57
2023-02-15T18:06:52.531Z,29.50
2023-02-15T18:09:39.794Z,29.97
2023-02-15T18:12:21.117Z,30.00
2023-02-15T18:14:51.209Z,31.33
2023-02-15T18:17:19.569Z,28.03
2023-02-15T18:19:48.203Z,34.73
2023-02-15T18:22:18.777Z,32.27
2023-02-15T18:24:47.079Z,31.20
2023-02-15T18:27:16.214Z,30.77
2023-02-15T18:29:44.401Z,29.60
2023-02-15T18:32:19.054Z,31.63
2023-02-15T18:34:49.578Z,28.83
2023-02-15T18:37:20.626Z,29.17
2023-02-15T18:39:50.413Z,28.47
2023-02-15T18:42:22.305Z,28.97
2023-02-15T18:44:50.603Z,27.97
2023-02-15T18:47:19.945Z,33.53
2023-02-15T18:49:47.831Z,35.70
2023-02-15T18:52:18.369Z,31.40
2023-02-15T18:54:47.092Z,33.13
2023-02-15T18:57:16.456Z,34.17
2023-02-15T18:59:44.557Z,35.47
2023-02-15T19:02:14.700Z,38.00
2023-02-15T19:04:44.606Z,32.37
2023-02-15T19:07:18.930Z,36.97
2023-02-15T19:09:50.621Z,34.07
2023-02-15T19:12:19.634Z,34.80
2023-02-15T19:14:47.844Z,32.43
2023-02-15T19:17:17.931Z,33.07
2023-02-15T19:19:48.007Z,31.30
2023-02-15T19:22:17.108Z,36.33
2023-02-15T19:24:47.111Z,31.87
2023-02-15T19:27:23.723Z,29.53
2023-02-15T19:29:52.070Z,31.87
2023-02-15T19:32:20.028Z,31.53
2023-02-15T19:34:49.420Z,31.87
2023-02-15T19:37:25.691Z,37.20
2023-02-15T19:39:53.884Z,36.50
2023-02-15T19:42:26.082Z,36.87
2023-02-15T19:44:54.682Z,34.10
2023-02-15T19:47:23.001Z,39.67
2023-02-15T19:49:52.214Z,31.80
2023-02-15T19:52:24.880Z,36.77
2023-02-15T19:54:54.506Z,37.20
2023-02-15T19:57:23.681Z,35.40
2023-02-15T19:59:51.892Z,30.93
2023-02-15T20:02:20.261Z,30.33
2023-02-15T20:04:48.238Z,32.50
2023-02-15T20:07:26.343Z,31.43
2023-02-15T20:09:54.403Z,34.60
2023-02-15T20:12:24.901Z,32.87
2023-02-15T20:14:53.325Z,30.40
2023-02-15T20:17:21.503Z,30.83
2023-02-15T20:19:49.449Z,34.70
2023-02-15T20:22:24.377Z,39.37
2023-02-15T20:24:55.580Z,35.30
2023-02-15T20:27:23.945Z,33.50
2023-02-15T20:29:51.880Z,32.97
2023-02-15T20:32:20.022Z,32.93
2023-02-15T20:34:48.070Z,29.83
2023-02-15T20:37:26.272Z,32.50
2023-02-15T20:39:54.275Z,35.50
2023-02-15T20:42:22.355Z,35.23
2023-02-15T20:44:50.264Z,38.13
2023-02-15T20:47:18.545Z,32.30
2023-02-15T20:49:46.454Z,30.93
2023-02-15T20:52:20.491Z,29.27
2023-02-15T20:54:49.820Z,30.20
2023-02-15T20:57:17.794Z,36.07
2023-02-15T20:59:46.055Z,32.17
2023-02-15T21:02:19.275Z,32.63
2023-02-15T21:04:47.660Z,34.83
2023-02-15T21:07:16.829Z,39.13
2023-02-15T21:09:45.028Z,33.70
2023-02-15T21:12:16.911Z,35.23
2023-02-15T21:14:45.612Z,30.90
2023-02-15T21:17:14.125Z,35.70
2023-02-15T21:19:42.642Z,32.43
2023-02-15T21:22:13.190Z,32.27
2023-02-15T21:24:47.848Z,33.27
2023-02-15T21:27:17.945Z,34.07
2023-02-15T21:29:45.820Z,34.23
2023-02-15T21:32:13.729Z,31.30
2023-02-15T21:34:41.778Z,37.37
2023-02-15T21:37:28.699Z,40.47
2023-02-15T21:39:56.684Z,35.20
2023-02-15T21:42:43.577Z,37.23
2023-02-15T21:45:33.531Z,33.57
2023-02-15T21:48:01.584Z,40.43
2023-02-15T21:50:47.092Z,35.37
2023-02-15T21:53:21.912Z,36.07
2023-02-15T21:55:50.226Z,35.03
2023-02-15T21:58:24.530Z,36.60
2023-02-15T22:00:54.862Z,36.97
2023-02-15T22:03:23.909Z,33.40
2023-02-15T22:05:52.162Z,33.13
2023-02-15T22:08:20.454Z,36.43
2023-02-15T22:10:49.118Z,28.70
2023-02-15T22:13:20.981Z,33.40
2023-02-15T22:15:50.266Z,31.87
2023-02-15T22:18:23.849Z,30.77
2023-02-15T22:20:52.149Z,32.07
2023-02-15T22:23:20.619Z,30.20
2023-02-15T22:25:54.655Z,30.43
2023-02-15T22:28:27.538Z,33.03
2023-02-15T22:30:56.776Z,32.13
2023-02-15T22:33:27.230Z,30.00
2023-02-15T22:35:55.226Z,32.73
2023-02-15T22:38:23.376Z,30.30
2023-02-15T22:40:52.847Z,31.53
2023-02-15T22:43:35.304Z,32.70
2023-02-15T22:46:07.325Z,30.97
2023-02-15T22:48:36.450Z,33.27
2023-02-15T22:51:04.735Z,31.80
2023-02-15T22:53:32.791Z,33.13
2023-02-15T22:56:06.052Z,35.40
2023-02-15T22:58:34.858Z,32.07
2023-02-15T23:01:05.717Z,33.73
2023-02-15T23:03:34.458Z,32.10
2023-02-15T23:06:02.390Z,31.67
2023-02-15T23:08:30.233Z,33.50
2023-02-15T23:10:58.527Z,32.33
2023-02-15T23:13:30.605Z,35.37
2023-02-15T23:16:00.174Z,33.53
2023-02-15T23:18:31.792Z,35.13
2023-02-15T23:21:01.901Z,33.67
2023-02-15T23:23:34.893Z,39.33
2023-02-15T23:26:04.681Z,35.07
2023-02-15T23:28:36.683Z,33.77
2023-02-15T23:31:11.983Z,35.53
2023-02-15T23:33:41.310Z,34.03
2023-02-15T23:36:24.562Z,34.33
2023-02-15T23:38:52.706Z,32.03
2023-02-15T23:41:23.757Z,30.07
2023-02-15T23:43:56.134Z,33.10
2023-02-15T23:46:29.133Z,33.20
2023-02-15T23:48:58.422Z,33.30
2023-02-15T23:51:30.875Z,29.77
2023-02-15T23:53:59.377Z,30.83
2023-02-15T23:56:27.491Z,36.23
2023-02-15T23:58:55.507Z,37.20
